sensor_id;sensor_type;location;lat;lon;timestamp;pressure;altitude;pressure_sealevel;temperature;humidity
51460;BME280;37534;39.772;2.718;2023-06-14T00:01:46;100556.91;;;21.61;100.00
51460;BME280;37534;39.772;2.718;2023-06-14T00:04:13;100557.34;;;21.55;100.00
51460;BME280;37534;39.772;2.718;2023-06-14T00:06:39;100554.00;;;21.53;100.00
51460;BME280;37534;39.772;2.718;2023-06-14T00:09:06;100561.78;;;21.54;100.00
51460;BME280;37534;39.772;2.718;2023-06-14T00:11:33;100548.38;;;21.46;100.00
51460;BME280;37534;39.772;2.718;2023-06-14T00:13:59;100562.88;;;21.39;100.00
51460;BME280;37534;39.772;2.718;2023-06-14T00:16:25;100563.72;;;21.39;100.00
51460;BME280;37534;39.772;2.718;2023-06-14T00:18:50;100571.31;;;21.31;100.00
51460;BME280;37534;39.772;2.718;2023-06-14T00:21:18;100567.97;;;21.29;100.00
51460;BME280;37534;39.772;2.718;2023-06-14T00:23:44;100564.03;;;21.23;100.00
51460;BME280;37534;39.772;2.718;2023-06-14T00:26:10;100556.88;;;21.25;100.00
51460;BME280;37534;39.772;2.718;2023-06-14T00:28:35;100559.03;;;21.32;100.00
51460;BME280;37534;39.772;2.718;2023-06-14T00:31:01;100550.72;;;21.38;100.00
51460;BME280;37534;39.772;2.718;2023-06-14T00:33:26;100538.50;;;21.25;100.00
51460;BME280;37534;39.772;2.718;2023-06-14T00:35:52;100549.72;;;21.27;100.00
51460;BME280;37534;39.772;2.718;2023-06-14T00:38:20;100546.88;;;21.31;100.00
51460;BME280;37534;39.772;2.718;2023-06-14T00:40:46;100534.81;;;21.28;100.00
51460;BME280;37534;39.772;2.718;2023-06-14T00:43:12;100539.84;;;21.31;100.00
51460;BME280;37534;39.772;2.718;2023-06-14T00:45:38;100532.94;;;21.30;100.00
51460;BME280;37534;39.772;2.718;2023-06-14T00:48:04;100533.88;;;21.29;100.00
51460;BME280;37534;39.772;2.718;2023-06-14T00:50:32;100528.84;;;21.26;100.00
51460;BME280;37534;39.772;2.718;2023-06-14T00:53:02;100519.97;;;21.16;100.00
51460;BME280;37534;39.772;2.718;2023-06-14T00:55:28;100507.22;;;21.11;100.00
51460;BME280;37534;39.772;2.718;2023-06-14T00:57:55;100524.56;;;21.25;100.00
51460;BME280;37534;39.772;2.718;2023-06-14T01:00:20;100519.75;;;21.19;100.00
51460;BME280;37534;39.772;2.718;2023-06-14T01:02:46;100522.47;;;21.17;100.00
51460;BME280;37534;39.772;2.718;2023-06-14T01:05:13;100530.03;;;21.22;100.00
51460;BME280;37534;39.772;2.718;2023-06-14T01:10:44;100532.97;;;21.17;100.00
51460;BME280;37534;39.772;2.718;2023-06-14T01:13:23;100527.13;;;21.14;100.00
51460;BME280;37534;39.772;2.718;2023-06-14T01:15:52;100520.16;;;21.01;100.00
51460;BME280;37534;39.772;2.718;2023-06-14T01:18:19;100520.09;;;20.90;100.00
51460;BME280;37534;39.772;2.718;2023-06-14T01:20:46;100519.69;;;20.83;100.00
51460;BME280;37534;39.772;2.718;2023-06-14T01:23:16;100512.41;;;20.76;100.00
51460;BME280;37534;39.772;2.718;2023-06-14T01:25:42;100522.66;;;20.79;100.00
51460;BME280;37534;39.772;2.718;2023-06-14T01:28:10;100523.09;;;20.73;100.00
51460;BME280;37534;39.772;2.718;2023-06-14T01:30:39;100525.72;;;20.73;100.00
51460;BME280;37534;39.772;2.718;2023-06-14T01:33:14;100521.44;;;20.72;100.00
51460;BME280;37534;39.772;2.718;2023-06-14T01:35:44;100518.06;;;20.69;100.00
51460;BME280;37534;39.772;2.718;2023-06-14T01:38:10;100520.69;;;20.69;100.00
51460;BME280;37534;39.772;2.718;2023-06-14T01:40:36;100523.75;;;20.63;100.00
51460;BME280;37534;39.772;2.718;2023-06-14T01:43:03;100521.84;;;20.65;100.00
51460;BME280;37534;39.772;2.718;2023-06-14T01:45:30;100524.78;;;20.74;100.00
51460;BME280;37534;39.772;2.718;2023-06-14T01:47:57;100519.03;;;20.68;100.00
51460;BME280;37534;39.772;2.718;2023-06-14T01:50:22;100526.03;;;20.55;100.00
51460;BME280;37534;39.772;2.718;2023-06-14T01:52:48;100519.97;;;20.55;100.00
51460;BME280;37534;39.772;2.718;2023-06-14T01:55:13;100515.56;;;20.55;100.00
51460;BME280;37534;39.772;2.718;2023-06-14T01:57:39;100517.66;;;20.50;100.00
51460;BME280;37534;39.772;2.718;2023-06-14T02:00:05;100521.88;;;20.52;100.00
51460;BME280;37534;39.772;2.718;2023-06-14T02:02:38;100519.34;;;20.51;100.00
51460;BME280;37534;39.772;2.718;2023-06-14T02:05:04;100521.81;;;20.41;100.00
51460;BME280;37534;39.772;2.718;2023-06-14T02:07:30;100528.59;;;20.44;100.00
51460;BME280;37534;39.772;2.718;2023-06-14T02:09:55;100533.84;;;20.44;100.00
51460;BME280;37534;39.772;2.718;2023-06-14T02:12:21;100534.78;;;20.43;100.00
51460;BME280;37534;39.772;2.718;2023-06-14T02:14:46;100527.44;;;20.35;100.00
51460;BME280;37534;39.772;2.718;2023-06-14T02:17:12;100531.53;;;20.39;100.00
51460;BME280;37534;39.772;2.718;2023-06-14T02:19:37;100530.91;;;20.36;100.00
51460;BME280;37534;39.772;2.718;2023-06-14T02:22:03;100535.84;;;20.40;100.00
51460;BME280;37534;39.772;2.718;2023-06-14T02:24:28;100533.38;;;20.50;100.00
51460;BME280;37534;39.772;2.718;2023-06-14T02:26:54;100526.28;;;20.39;100.00
51460;BME280;37534;39.772;2.718;2023-06-14T02:29:20;100539.69;;;20.47;100.00
51460;BME280;37534;39.772;2.718;2023-06-14T02:31:46;100536.66;;;20.41;100.00
51460;BME280;37534;39.772;2.718;2023-06-14T02:34:14;100547.00;;;20.55;100.00
51460;BME280;37534;39.772;2.718;2023-06-14T02:36:42;100540.72;;;20.58;100.00
51460;BME280;37534;39.772;2.718;2023-06-14T02:39:08;100540.84;;;20.56;100.00
51460;BME280;37534;39.772;2.718;2023-06-14T02:41:38;100543.66;;;20.53;100.00
51460;BME280;37534;39.772;2.718;2023-06-14T02:44:03;100542.00;;;20.52;100.00
51460;BME280;37534;39.772;2.718;2023-06-14T02:46:29;100538.34;;;20.42;100.00
51460;BME280;37534;39.772;2.718;2023-06-14T02:48:54;100525.91;;;20.32;100.00
51460;BME280;37534;39.772;2.718;2023-06-14T02:51:20;100541.81;;;20.29;100.00
51460;BME280;37534;39.772;2.718;2023-06-14T02:53:45;100538.69;;;20.24;100.00
51460;BME280;37534;39.772;2.718;2023-06-14T02:56:11;100543.91;;;20.24;100.00
51460;BME280;37534;39.772;2.718;2023-06-14T02:58:37;100546.03;;;20.19;100.00
51460;BME280;37534;39.772;2.718;2023-06-14T03:01:07;100549.59;;;20.18;100.00
51460;BME280;37534;39.772;2.718;2023-06-14T03:03:33;100544.56;;;20.15;100.00
51460;BME280;37534;39.772;2.718;2023-06-14T03:05:59;100553.56;;;20.11;100.00
51460;BME280;37534;39.772;2.718;2023-06-14T03:08:30;100564.56;;;20.16;100.00
51460;BME280;37534;39.772;2.718;2023-06-14T03:11:04;100565.91;;;20.09;100.00
51460;BME280;37534;39.772;2.718;2023-06-14T03:13:34;100569.91;;;20.02;100.00
51460;BME280;37534;39.772;2.718;2023-06-14T03:16:00;100564.25;;;20.08;100.00
51460;BME280;37534;39.772;2.718;2023-06-14T03:18:32;100564.66;;;20.14;100.00
51460;BME280;37534;39.772;2.718;2023-06-14T03:21:04;100563.63;;;20.17;100.00
51460;BME280;37534;39.772;2.718;2023-06-14T03:23:30;100558.59;;;20.14;100.00
51460;BME280;37534;39.772;2.718;2023-06-14T03:25:56;100568.13;;;20.15;100.00
51460;BME280;37534;39.772;2.718;2023-06-14T03:28:22;100550.53;;;20.04;100.00
51460;BME280;37534;39.772;2.718;2023-06-14T03:30:47;100558.06;;;20.09;100.00
51460;BME280;37534;39.772;2.718;2023-06-14T03:33:13;100559.22;;;20.18;100.00
51460;BME280;37534;39.772;2.718;2023-06-14T03:35:38;100558.19;;;20.20;100.00
51460;BME280;37534;39.772;2.718;2023-06-14T03:38:04;100556.91;;;20.26;100.00
51460;BME280;37534;39.772;2.718;2023-06-14T03:40:30;100557.03;;;20.24;100.00
51460;BME280;37534;39.772;2.718;2023-06-14T03:42:56;100547.28;;;20.13;100.00
51460;BME280;37534;39.772;2.718;2023-06-14T03:45:22;100547.72;;;20.20;100.00
51460;BME280;37534;39.772;2.718;2023-06-14T03:47:47;100542.78;;;20.16;100.00
51460;BME280;37534;39.772;2.718;2023-06-14T03:50:13;100543.09;;;20.11;100.00
51460;BME280;37534;39.772;2.718;2023-06-14T03:52:39;100545.81;;;20.22;100.00
51460;BME280;37534;39.772;2.718;2023-06-14T03:55:07;100559.72;;;20.36;100.00
51460;BME280;37534;39.772;2.718;2023-06-14T03:57:33;100559.41;;;20.40;100.00
51460;BME280;37534;39.772;2.718;2023-06-14T03:59:59;100555.44;;;20.35;100.00
51460;BME280;37534;39.772;2.718;2023-06-14T04:02:25;100553.34;;;20.40;100.00
51460;BME280;37534;39.772;2.718;2023-06-14T04:04:51;100563.81;;;20.27;100.00
51460;BME280;37534;39.772;2.718;2023-06-14T04:07:19;100555.47;;;20.22;100.00
51460;BME280;37534;39.772;2.718;2023-06-14T04:09:45;100551.47;;;20.16;100.00
51460;BME280;37534;39.772;2.718;2023-06-14T04:12:11;100561.72;;;20.19;100.00
51460;BME280;37534;39.772;2.718;2023-06-14T04:14:38;100560.38;;;20.26;100.00
51460;BME280;37534;39.772;2.718;2023-06-14T04:17:04;100556.69;;;20.16;100.00
51460;BME280;37534;39.772;2.718;2023-06-14T04:19:30;100550.44;;;20.19;100.00
51460;BME280;37534;39.772;2.718;2023-06-14T04:21:55;100553.78;;;20.21;100.00
51460;BME280;37534;39.772;2.718;2023-06-14T04:24:21;100557.56;;;20.17;100.00
51460;BME280;37534;39.772;2.718;2023-06-14T04:26:49;100558.38;;;20.17;100.00
51460;BME280;37534;39.772;2.718;2023-06-14T04:29:17;100547.91;;;20.17;100.00
51460;BME280;37534;39.772;2.718;2023-06-14T04:31:45;100554.19;;;20.14;100.00
51460;BME280;37534;39.772;2.718;2023-06-14T04:34:12;100547.38;;;20.12;100.00
51460;BME280;37534;39.772;2.718;2023-06-14T04:36:47;100549.28;;;20.10;100.00
51460;BME280;37534;39.772;2.718;2023-06-14T04:39:18;100560.28;;;20.15;100.00
51460;BME280;37534;39.772;2.718;2023-06-14T04:41:45;100567.19;;;20.16;100.00
51460;BME280;37534;39.772;2.718;2023-06-14T04:44:10;100565.53;;;20.15;100.00
51460;BME280;37534;39.772;2.718;2023-06-14T04:46:38;100571.81;;;20.25;100.00
51460;BME280;37534;39.772;2.718;2023-06-14T04:49:14;100558.34;;;20.43;100.00
51460;BME280;37534;39.772;2.718;2023-06-14T04:51:44;100577.22;;;20.48;100.00
51460;BME280;37534;39.772;2.718;2023-06-14T04:54:11;100570.63;;;20.42;100.00
51460;BME280;37534;39.772;2.718;2023-06-14T04:56:43;100585.19;;;20.46;100.00
51460;BME280;37534;39.772;2.718;2023-06-14T04:59:09;100587.19;;;20.30;100.00
51460;BME280;37534;39.772;2.718;2023-06-14T05:01:36;100601.56;;;20.24;100.00
51460;BME280;37534;39.772;2.718;2023-06-14T05:04:03;100590.44;;;20.33;100.00
51460;BME280;37534;39.772;2.718;2023-06-14T05:06:29;100581.75;;;20.20;100.00
51460;BME280;37534;39.772;2.718;2023-06-14T05:08:55;100602.59;;;20.35;100.00
51460;BME280;37534;39.772;2.718;2023-06-14T05:11:21;100605.75;;;20.40;100.00
51460;BME280;37534;39.772;2.718;2023-06-14T05:13:49;100595.28;;;20.40;100.00
51460;BME280;37534;39.772;2.718;2023-06-14T05:16:15;100591.47;;;20.44;100.00
51460;BME280;37534;39.772;2.718;2023-06-14T05:18:45;100607.66;;;20.38;100.00
51460;BME280;37534;39.772;2.718;2023-06-14T05:21:11;100613.38;;;20.43;100.00
51460;BME280;37534;39.772;2.718;2023-06-14T05:23:36;100600.28;;;20.43;100.00
51460;BME280;37534;39.772;2.718;2023-06-14T05:26:02;100587.94;;;20.45;100.00
51460;BME280;37534;39.772;2.718;2023-06-14T05:28:29;100608.66;;;20.48;100.00
51460;BME280;37534;39.772;2.718;2023-06-14T05:30:56;100612.00;;;20.50;100.00
51460;BME280;37534;39.772;2.718;2023-06-14T05:33:21;100608.66;;;20.61;100.00
51460;BME280;37534;39.772;2.718;2023-06-14T05:35:47;100609.59;;;20.73;100.00
51460;BME280;37534;39.772;2.718;2023-06-14T05:38:13;100611.56;;;20.82;100.00
51460;BME280;37534;39.772;2.718;2023-06-14T05:40:38;100608.75;;;20.85;100.00
51460;BME280;37534;39.772;2.718;2023-06-14T05:43:04;100606.75;;;20.88;100.00
51460;BME280;37534;39.772;2.718;2023-06-14T05:45:29;100608.19;;;20.93;100.00
51460;BME280;37534;39.772;2.718;2023-06-14T05:47:55;100603.56;;;20.96;100.00
51460;BME280;37534;39.772;2.718;2023-06-14T05:50:21;100619.81;;;21.01;100.00
51460;BME280;37534;39.772;2.718;2023-06-14T05:52:46;100617.81;;;21.05;100.00
51460;BME280;37534;39.772;2.718;2023-06-14T05:55:12;100607.09;;;21.08;100.00
51460;BME280;37534;39.772;2.718;2023-06-14T05:57:38;100615.63;;;21.23;100.00
51460;BME280;37534;39.772;2.718;2023-06-14T06:00:04;100618.56;;;21.31;100.00
51460;BME280;37534;39.772;2.718;2023-06-14T06:02:41;100619.34;;;21.44;100.00
51460;BME280;37534;39.772;2.718;2023-06-14T06:05:10;100633.75;;;21.63;100.00
51460;BME280;37534;39.772;2.718;2023-06-14T06:07:37;100617.41;;;21.59;100.00
51460;BME280;37534;39.772;2.718;2023-06-14T06:10:03;100636.47;;;21.86;100.00
51460;BME280;37534;39.772;2.718;2023-06-14T06:12:30;100644.38;;;21.97;100.00
51460;BME280;37534;39.772;2.718;2023-06-14T06:14:55;100633.66;;;22.11;100.00
51460;BME280;37534;39.772;2.718;2023-06-14T06:17:21;100626.88;;;22.20;100.00
51460;BME280;37534;39.772;2.718;2023-06-14T06:19:46;100622.53;;;22.32;100.00
51460;BME280;37534;39.772;2.718;2023-06-14T06:22:12;100634.00;;;22.42;100.00
51460;BME280;37534;39.772;2.718;2023-06-14T06:24:37;100636.63;;;22.42;100.00
51460;BME280;37534;39.772;2.718;2023-06-14T06:27:03;100639.47;;;22.50;100.00
51460;BME280;37534;39.772;2.718;2023-06-14T06:29:29;100642.22;;;22.49;100.00
51460;BME280;37534;39.772;2.718;2023-06-14T06:31:55;100655.03;;;22.65;100.00
51460;BME280;37534;39.772;2.718;2023-06-14T06:34:21;100652.25;;;22.77;100.00
51460;BME280;37534;39.772;2.718;2023-06-14T06:36:47;100660.75;;;22.92;100.00
51460;BME280;37534;39.772;2.718;2023-06-14T06:39:13;100664.47;;;23.01;100.00
51460;BME280;37534;39.772;2.718;2023-06-14T06:41:40;100658.97;;;23.04;100.00
51460;BME280;37534;39.772;2.718;2023-06-14T06:44:06;100673.66;;;23.18;100.00
51460;BME280;37534;39.772;2.718;2023-06-14T06:46:33;100663.41;;;23.15;100.00
51460;BME280;37534;39.772;2.718;2023-06-14T06:48:59;100670.91;;;23.31;100.00
51460;BME280;37534;39.772;2.718;2023-06-14T06:51:25;100672.38;;;23.56;100.00
51460;BME280;37534;39.772;2.718;2023-06-14T06:53:54;100676.84;;;23.77;100.00
51460;BME280;37534;39.772;2.718;2023-06-14T06:56:20;100669.13;;;23.96;100.00
51460;BME280;37534;39.772;2.718;2023-06-14T06:58:51;100682.63;;;24.24;100.00
51460;BME280;37534;39.772;2.718;2023-06-14T07:01:17;100690.66;;;24.43;100.00
51460;BME280;37534;39.772;2.718;2023-06-14T07:03:44;100694.81;;;24.67;100.00
51460;BME280;37534;39.772;2.718;2023-06-14T07:06:09;100695.84;;;24.76;100.00
51460;BME280;37534;39.772;2.718;2023-06-14T07:08:35;100702.47;;;24.70;100.00
51460;BME280;37534;39.772;2.718;2023-06-14T07:11:01;100710.97;;;24.53;100.00
51460;BME280;37534;39.772;2.718;2023-06-14T07:13:27;100726.16;;;24.39;100.00
51460;BME280;37534;39.772;2.718;2023-06-14T07:15:58;100720.75;;;24.20;100.00
51460;BME280;37534;39.772;2.718;2023-06-14T07:18:24;100720.44;;;24.13;100.00
51460;BME280;37534;39.772;2.718;2023-06-14T07:20:49;100729.38;;;24.22;100.00
51460;BME280;37534;39.772;2.718;2023-06-14T07:23:15;100713.47;;;24.12;100.00
51460;BME280;37534;39.772;2.718;2023-06-14T07:25:41;100716.00;;;24.35;100.00
51460;BME280;37534;39.772;2.718;2023-06-14T07:28:07;100723.47;;;24.72;100.00
51460;BME280;37534;39.772;2.718;2023-06-14T07:30:32;100720.53;;;25.05;95.78
51460;BME280;37534;39.772;2.718;2023-06-14T07:32:58;100710.88;;;25.26;93.20
51460;BME280;37534;39.772;2.718;2023-06-14T07:35:23;100725.69;;;25.48;91.09
51460;BME280;37534;39.772;2.718;2023-06-14T07:37:49;100727.50;;;25.67;90.78
51460;BME280;37534;39.772;2.718;2023-06-14T07:40:15;100726.28;;;25.90;87.86
51460;BME280;37534;39.772;2.718;2023-06-14T07:42:40;100722.53;;;26.03;87.00
51460;BME280;37534;39.772;2.718;2023-06-14T07:45:06;100729.50;;;26.04;83.79
51460;BME280;37534;39.772;2.718;2023-06-14T07:47:33;100727.56;;;25.96;84.24
51460;BME280;37534;39.772;2.718;2023-06-14T07:49:58;100732.78;;;25.67;86.75
51460;BME280;37534;39.772;2.718;2023-06-14T07:52:24;100732.50;;;25.50;87.28
51460;BME280;37534;39.772;2.718;2023-06-14T07:54:50;100735.81;;;25.52;89.94
51460;BME280;37534;39.772;2.718;2023-06-14T07:57:15;100739.69;;;25.38;94.24
51460;BME280;37534;39.772;2.718;2023-06-14T07:59:41;100736.13;;;25.18;93.71
51460;BME280;37534;39.772;2.718;2023-06-14T08:02:06;100731.97;;;25.16;94.30
51460;BME280;37534;39.772;2.718;2023-06-14T08:04:32;100736.81;;;25.20;95.88
51460;BME280;37534;39.772;2.718;2023-06-14T08:06:59;100727.78;;;25.13;95.90
51460;BME280;37534;39.772;2.718;2023-06-14T08:09:25;100732.78;;;25.16;95.70
51460;BME280;37534;39.772;2.718;2023-06-14T08:11:51;100740.72;;;25.16;97.07
51460;BME280;37534;39.772;2.718;2023-06-14T08:14:16;100736.25;;;25.17;100.00
51460;BME280;37534;39.772;2.718;2023-06-14T08:16:42;100750.44;;;25.16;100.00
51460;BME280;37534;39.772;2.718;2023-06-14T08:19:07;100750.94;;;25.00;100.00
51460;BME280;37534;39.772;2.718;2023-06-14T08:21:33;100740.91;;;24.94;100.00
51460;BME280;37534;39.772;2.718;2023-06-14T08:23:58;100744.34;;;24.84;100.00
51460;BME280;37534;39.772;2.718;2023-06-14T08:26:25;100743.00;;;24.69;100.00
51460;BME280;37534;39.772;2.718;2023-06-14T08:28:55;100751.03;;;24.67;100.00
51460;BME280;37534;39.772;2.718;2023-06-14T08:31:20;100748.25;;;24.59;100.00
51460;BME280;37534;39.772;2.718;2023-06-14T08:33:46;100752.00;;;24.45;100.00
51460;BME280;37534;39.772;2.718;2023-06-14T08:36:12;100757.06;;;24.37;100.00
51460;BME280;37534;39.772;2.718;2023-06-14T08:38:41;100754.75;;;24.55;100.00
51460;BME280;37534;39.772;2.718;2023-06-14T08:41:07;100755.66;;;24.96;100.00
51460;BME280;37534;39.772;2.718;2023-06-14T08:43:33;100756.34;;;25.29;100.00
51460;BME280;37534;39.772;2.718;2023-06-14T08:46:02;100766.44;;;25.65;100.00
51460;BME280;37534;39.772;2.718;2023-06-14T08:48:28;100766.16;;;25.68;99.31
51460;BME280;37534;39.772;2.718;2023-06-14T08:50:55;100779.22;;;25.50;98.01
51460;BME280;37534;39.772;2.718;2023-06-14T08:53:28;100788.75;;;25.10;100.00
51460;BME280;37534;39.772;2.718;2023-06-14T08:55:54;100804.00;;;24.55;100.00
51460;BME280;37534;39.772;2.718;2023-06-14T08:58:44;100815.22;;;24.36;100.00
51460;BME280;37534;39.772;2.718;2023-06-14T09:01:11;100812.81;;;24.12;100.00
51460;BME280;37534;39.772;2.718;2023-06-14T09:03:42;100822.94;;;23.95;100.00
51460;BME280;37534;39.772;2.718;2023-06-14T09:06:08;100812.41;;;23.72;100.00
51460;BME280;37534;39.772;2.718;2023-06-14T09:08:43;100824.16;;;23.57;100.00
51460;BME280;37534;39.772;2.718;2023-06-14T09:11:16;100828.22;;;23.61;100.00
51460;BME280;37534;39.772;2.718;2023-06-14T09:13:45;100830.59;;;23.64;100.00
51460;BME280;37534;39.772;2.718;2023-06-14T09:16:11;100840.44;;;23.73;100.00
51460;BME280;37534;39.772;2.718;2023-06-14T09:18:41;100834.41;;;23.94;100.00
51460;BME280;37534;39.772;2.718;2023-06-14T09:21:09;100840.56;;;24.48;100.00
51460;BME280;37534;39.772;2.718;2023-06-14T09:23:38;100834.53;;;24.99;100.00
51460;BME280;37534;39.772;2.718;2023-06-14T09:26:09;100840.78;;;25.50;100.00
51460;BME280;37534;39.772;2.718;2023-06-14T09:28:35;100833.66;;;25.82;100.00
51460;BME280;37534;39.772;2.718;2023-06-14T09:31:01;100843.50;;;25.70;100.00
51460;BME280;37534;39.772;2.718;2023-06-14T09:33:27;100849.03;;;25.57;100.00
51460;BME280;37534;39.772;2.718;2023-06-14T09:35:54;100845.56;;;25.76;100.00
51460;BME280;37534;39.772;2.718;2023-06-14T09:38:20;100847.06;;;25.99;100.00
51460;BME280;37534;39.772;2.718;2023-06-14T09:40:46;100857.72;;;25.88;100.00
51460;BME280;37534;39.772;2.718;2023-06-14T09:43:12;100857.94;;;25.66;100.00
51460;BME280;37534;39.772;2.718;2023-06-14T09:45:40;100857.63;;;25.59;100.00
51460;BME280;37534;39.772;2.718;2023-06-14T09:48:07;100858.03;;;25.54;100.00
51460;BME280;37534;39.772;2.718;2023-06-14T09:50:34;100872.97;;;25.34;100.00
51460;BME280;37534;39.772;2.718;2023-06-14T09:53:07;100880.19;;;24.69;100.00
51460;BME280;37534;39.772;2.718;2023-06-14T09:55:36;100873.31;;;24.78;100.00
51460;BME280;37534;39.772;2.718;2023-06-14T09:58:05;100873.09;;;24.91;100.00
51460;BME280;37534;39.772;2.718;2023-06-14T10:00:35;100858.47;;;24.98;100.00
51460;BME280;37534;39.772;2.718;2023-06-14T10:03:07;100872.06;;;25.24;100.00
51460;BME280;37534;39.772;2.718;2023-06-14T10:05:36;100878.13;;;25.36;100.00
51460;BME280;37534;39.772;2.718;2023-06-14T10:08:08;100891.53;;;25.44;100.00
51460;BME280;37534;39.772;2.718;2023-06-14T10:10:34;100885.53;;;25.83;100.00
51460;BME280;37534;39.772;2.718;2023-06-14T10:13:00;100897.31;;;26.19;100.00
51460;BME280;37534;39.772;2.718;2023-06-14T10:16:00;100907.59;;;26.22;100.00
51460;BME280;37534;39.772;2.718;2023-06-14T10:18:33;100910.84;;;26.35;100.00
51460;BME280;37534;39.772;2.718;2023-06-14T10:21:16;100914.91;;;26.49;100.00
51460;BME280;37534;39.772;2.718;2023-06-14T10:23:45;100899.13;;;26.38;97.64
51460;BME280;37534;39.772;2.718;2023-06-14T10:26:23;100897.34;;;26.58;97.13
51460;BME280;37534;39.772;2.718;2023-06-14T10:29:00;100904.16;;;26.61;98.48
51460;BME280;37534;39.772;2.718;2023-06-14T10:31:46;100896.69;;;26.76;95.78
51460;BME280;37534;39.772;2.718;2023-06-14T10:34:12;100896.19;;;27.09;95.62
51460;BME280;37534;39.772;2.718;2023-06-14T10:36:46;100891.38;;;27.42;93.70
51460;BME280;37534;39.772;2.718;2023-06-14T10:39:25;100887.91;;;27.69;91.90
51460;BME280;37534;39.772;2.718;2023-06-14T10:41:53;100903.88;;;27.87;89.59
51460;BME280;37534;39.772;2.718;2023-06-14T10:46:49;100908.47;;;27.95;87.89
51460;BME280;37534;39.772;2.718;2023-06-14T10:49:18;100890.03;;;27.94;84.97
51460;BME280;37534;39.772;2.718;2023-06-14T10:51:46;100892.53;;;27.95;84.87
51460;BME280;37534;39.772;2.718;2023-06-14T10:54:20;100888.41;;;27.83;85.25
51460;BME280;37534;39.772;2.718;2023-06-14T10:59:14;100884.91;;;27.55;83.66
51460;BME280;37534;39.772;2.718;2023-06-14T11:02:04;100897.00;;;27.29;85.28
51460;BME280;37534;39.772;2.718;2023-06-14T11:04:52;100893.66;;;27.27;84.83
51460;BME280;37534;39.772;2.718;2023-06-14T11:10:39;100879.72;;;27.25;82.09
51460;BME280;37534;39.772;2.718;2023-06-14T11:13:06;100892.47;;;27.02;84.62
51460;BME280;37534;39.772;2.718;2023-06-14T11:15:33;100896.19;;;27.09;83.70
51460;BME280;37534;39.772;2.718;2023-06-14T11:18:06;100897.25;;;27.26;80.32
51460;BME280;37534;39.772;2.718;2023-06-14T11:20:36;100893.34;;;27.40;76.70
51460;BME280;37534;39.772;2.718;2023-06-14T11:23:02;100886.06;;;27.52;75.48
51460;BME280;37534;39.772;2.718;2023-06-14T11:25:29;100892.41;;;27.22;72.85
51460;BME280;37534;39.772;2.718;2023-06-14T11:27:55;100881.47;;;26.97;73.53
51460;BME280;37534;39.772;2.718;2023-06-14T11:30:22;100891.63;;;26.92;76.35
51460;BME280;37534;39.772;2.718;2023-06-14T11:32:52;100883.66;;;27.11;76.04
51460;BME280;37534;39.772;2.718;2023-06-14T11:35:19;100877.72;;;27.37;75.60
51460;BME280;37534;39.772;2.718;2023-06-14T11:37:48;100883.31;;;27.34;73.99
51460;BME280;37534;39.772;2.718;2023-06-14T11:40:14;100881.38;;;27.36;75.10
51460;BME280;37534;39.772;2.718;2023-06-14T11:42:41;100888.72;;;26.95;74.99
51460;BME280;37534;39.772;2.718;2023-06-14T11:45:11;100881.19;;;26.81;76.93
51460;BME280;37534;39.772;2.718;2023-06-14T11:47:39;100894.84;;;26.76;79.89
51460;BME280;37534;39.772;2.718;2023-06-14T11:50:06;100888.13;;;26.91;80.62
51460;BME280;37534;39.772;2.718;2023-06-14T11:52:33;100893.44;;;27.01;80.17
51460;BME280;37534;39.772;2.718;2023-06-14T11:54:59;100884.56;;;26.83;77.41
51460;BME280;37534;39.772;2.718;2023-06-14T11:57:25;100897.59;;;27.04;75.44
51460;BME280;37534;39.772;2.718;2023-06-14T11:59:51;100892.00;;;27.17;78.32
51460;BME280;37534;39.772;2.718;2023-06-14T12:02:19;100898.16;;;26.88;76.91
51460;BME280;37534;39.772;2.718;2023-06-14T12:04:48;100895.81;;;26.85;76.79
51460;BME280;37534;39.772;2.718;2023-06-14T12:07:15;100899.84;;;26.89;76.91
51460;BME280;37534;39.772;2.718;2023-06-14T12:12:28;100901.94;;;26.85;76.81
51460;BME280;37534;39.772;2.718;2023-06-14T12:14:57;100905.25;;;27.17;76.27
51460;BME280;37534;39.772;2.718;2023-06-14T12:17:23;100906.94;;;27.55;76.69
51460;BME280;37534;39.772;2.718;2023-06-14T12:19:49;100895.72;;;27.71;71.97
51460;BME280;37534;39.772;2.718;2023-06-14T12:22:16;100913.78;;;27.58;72.28
51460;BME280;37534;39.772;2.718;2023-06-14T12:24:43;100906.59;;;27.40;71.84
51460;BME280;37534;39.772;2.718;2023-06-14T12:27:08;100901.44;;;27.39;72.92
51460;BME280;37534;39.772;2.718;2023-06-14T12:29:34;100910.38;;;27.28;73.52
51460;BME280;37534;39.772;2.718;2023-06-14T12:32:00;100911.75;;;27.32;71.72
51460;BME280;37534;39.772;2.718;2023-06-14T12:34:26;100927.59;;;27.52;70.80
51460;BME280;37534;39.772;2.718;2023-06-14T12:36:56;100926.16;;;27.67;71.26
51460;BME280;37534;39.772;2.718;2023-06-14T12:39:23;100920.31;;;27.54;71.08
51460;BME280;37534;39.772;2.718;2023-06-14T12:41:50;100914.47;;;27.60;66.78
51460;BME280;37534;39.772;2.718;2023-06-14T12:44:15;100933.13;;;27.68;69.32
51460;BME280;37534;39.772;2.718;2023-06-14T12:46:42;100946.06;;;27.71;69.33
51460;BME280;37534;39.772;2.718;2023-06-14T12:49:10;100939.94;;;27.71;70.38
51460;BME280;37534;39.772;2.718;2023-06-14T12:51:36;100940.97;;;27.60;71.51
51460;BME280;37534;39.772;2.718;2023-06-14T12:54:02;100946.41;;;27.96;70.48
51460;BME280;37534;39.772;2.718;2023-06-14T12:56:28;100950.16;;;28.21;69.89
51460;BME280;37534;39.772;2.718;2023-06-14T12:58:53;100950.88;;;28.41;68.10